Terminal Aerodrome Forecast
Issued by NWS

Home | Current Version | Previous Version | Text Only | Print | Product List | Glossary On
Versions: 1 2 3 4 5 6 7 8 9 10 11 12 13
237
FTUS43 KOAX 121903 AAA
TAFBFF
TAF AMD
KBFF 121903Z 1219/1318 10009KT P6SM OVC010
     FM122200 12010KT 2SM BR OVC009
     FM130100 12011KT 1SM BR OVC015
     FM130900 12007KT 5SM BR OVC025
     FM131600 15007KT P6SM OVC025=

USA.gov is the U.S. government's official web portal to all federal, state and local government web resources and services.